CheckWX is a tool to help pilots better visualize weather data.  It is not intended as a substitute for an official pre-flight weather briefing.

09:54:41 UTC

0A9 METAR
Elizabethton Municipal Airport
Elizabethton, Tennessee, USA
Current

20 mins ago

K0A9 250935Z AUTO 00000KT 6SM -DZ FEW033 BKN042 OVC049 10/09 A2975 RMK AO2
Observed
Feb-25 @ 09:35 UTC
Visibility
6 SM
Flight Rules
VFR
Conditions
Light Drizzle
Cloud Levels
  • Few at 3,300' AGL
  • Broken at 4,200' AGL
  • Overcast at 4,900' AGL
Temperature
10°C / 50°F
Dewpoint
C / 48°F
Humidity
94%
Altimeter
29.75" Hg
Pressure
1007.42 hPa
Previous

40 mins ago

K0A9 250915Z AUTO 00000KT 8SM FEW034 BKN050 OVC065 09/09 A2974 RMK AO2
Observed
Feb-25 @ 09:15 UTC
Visibility
8 SM
Flight Rules
VFR
Cloud Levels
  • Few at 3,400' AGL
  • Broken at 5,000' AGL
  • Overcast at 6,500' AGL
Temperature
C / 48°F
Dewpoint
C / 48°F
Humidity
100%
Altimeter
29.74" Hg
Pressure
1007.12 hPa
Previous

60 mins ago

K0A9 250855Z AUTO 00000KT 4SM -RA BKN035 BKN042 OVC065 10/09 A2975 RMK AO2 P0004
Observed
Feb-25 @ 08:55 UTC
Visibility
4 SM
Flight Rules
MVFR
Conditions
Light Rain
Cloud Levels
  • Broken at 3,500' AGL
  • Broken at 4,200' AGL
  • Overcast at 6,500' AGL
Temperature
10°C / 50°F
Dewpoint
C / 48°F
Humidity
94%
Altimeter
29.75" Hg
Pressure
1007.42 hPa
Current Rain
0.04"